Time;durP1;ratioP1;P1;durP2;ratioP2;P2;SDS_P1;SDS_P2;PMS_P1;PMS_P2;Temp;Humidity;BMP_temperature;BMP_pressure;BME280_temperature;BME280_humidity;BME280_pressure;Samples;Min_cycle;Max_cycle;Signal;HPM_P1;HPM_P2
2022/09/02 00:01:03;;;;;;;7.68;3.60;;;;;;;27.81;67.63;98633.34;6127750;23;20139;-86
2022/09/02 00:03:33;;;;;;;9.95;4.32;;;;;;;27.80;67.26;98633.56;6127672;23;20144;-86
2022/09/02 00:06:01;;;;;;;6.43;3.30;;;;;;;27.81;67.10;98627.13;6127485;23;20179;-86
2022/09/02 00:08:32;;;;;;;6.95;3.80;;;;;;;27.60;68.47;98635.31;6101951;23;20166;-86
2022/09/02 00:11:02;;;;;;;6.05;3.58;;;;;;;27.52;69.04;98639.03;6127571;23;20184;-86
2022/09/02 00:13:29;;;;;;;9.18;3.97;;;;;;;27.48;69.01;98631.56;6127565;23;20159;-86
2022/09/02 00:15:55;;;;;;;8.02;3.97;;;;;;;27.56;68.87;98639.47;6127179;23;20147;-86
2022/09/02 00:18:23;;;;;;;10.23;3.72;;;;;;;27.53;69.44;98632.63;6127584;23;20151;-86
2022/09/02 00:20:51;;;;;;;7.05;3.10;;;;;;;27.57;68.68;98636.56;6127142;23;20214;-86
2022/09/02 00:23:18;;;;;;;7.18;3.97;;;;;;;27.57;68.88;98636.56;6127469;23;20174;-86
2022/09/02 00:25:45;;;;;;;7.85;3.25;;;;;;;27.38;69.54;98627.31;6127133;23;20264;-86
2022/09/02 00:28:14;;;;;;;8.48;4.10;;;;;;;27.47;69.54;98629.88;6127453;23;20210;-86
2022/09/02 00:30:41;;;;;;;8.73;3.92;;;;;;;27.50;69.48;98629.47;6101730;23;20184;-86
2022/09/02 00:33:07;;;;;;;11.85;3.67;;;;;;;27.55;68.91;98629.72;6127101;23;20568;-86
2022/09/02 00:35:33;;;;;;;9.18;4.18;;;;;;;27.51;69.26;98632.00;6127384;23;20148;-86
2022/09/02 00:37:59;;;;;;;8.57;3.85;;;;;;;27.51;69.60;98626.59;6126964;23;20251;-86
2022/09/02 00:40:27;;;;;;;5.88;3.75;;;;;;;27.44;69.43;98631.09;6126980;23;20148;-86
2022/09/02 00:42:54;;;;;;;6.28;3.15;;;;;;;27.60;68.92;98633.47;6127027;23;20179;-86
2022/09/02 00:45:22;;;;;;;7.03;3.60;;;;;;;27.69;68.64;98634.13;6077546;23;20160;-86
2022/09/02 00:47:51;;;;;;;6.82;3.67;;;;;;;27.67;68.66;98620.03;6101304;23;20488;-86
2022/09/02 00:50:25;;;;;;;5.00;2.83;;;;;;;27.70;68.33;98625.03;6126798;23;20239;-86
2022/09/02 00:53:01;;;;;;;7.95;3.60;;;;;;;27.70;68.50;98619.66;6101279;23;20539;-86
2022/09/02 00:55:32;;;;;;;9.23;4.00;;;;;;;27.71;68.24;98618.59;6126867;23;20606;-86
2022/09/02 00:58:03;;;;;;;7.22;3.65;;;;;;;27.60;68.95;98624.56;6127221;23;20194;-86
2022/09/02 01:00:37;;;;;;;8.43;3.70;;;;;;;27.61;68.25;98621.66;6127489;23;20158;-86
2022/09/02 01:03:08;;;;;;;7.30;3.45;;;;;;;27.65;68.38;98632.84;6126750;23;20144;-86
2022/09/02 01:05:38;;;;;;;8.02;3.35;;;;;;;27.59;68.04;98622.91;6101163;23;20496;-86
2022/09/02 01:08:08;;;;;;;6.68;3.75;;;;;;;27.66;68.06;98623.75;6127108;23;20140;-86
2022/09/02 01:10:35;;;;;;;5.85;3.35;;;;;;;27.72;68.41;98625.66;6101390;23;20195;-86
2022/09/02 01:13:09;;;;;;;9.52;4.15;;;;;;;27.59;68.44;98620.22;6127014;23;20191;-86
2022/09/02 01:15:45;;;;;;;8.95;4.28;;;;;;;27.58;68.47;98621.22;6127359;23;20156;-86
2022/09/02 01:18:17;;;;;;;12.35;3.47;;;;;;;27.33;70.02;98620.91;6127012;23;20203;-86
2022/09/02 01:20:45;;;;;;;9.95;3.72;;;;;;;27.34;70.45;98626.06;6126986;23;20136;-86
2022/09/02 01:23:13;;;;;;;9.25;3.30;;;;;;;27.34;70.15;98612.63;6100948;23;20580;-86
2022/09/02 01:25:40;;;;;;;7.93;3.17;;;;;;;27.38;69.91;98623.81;6126546;23;20175;-86
2022/09/02 01:28:11;;;;;;;12.80;3.67;;;;;;;27.37;69.83;98622.97;6126569;23;20152;-86
2022/09/02 01:30:41;;;;;;;4.78;2.80;;;;;;;27.44;69.41;98620.34;6127171;23;20172;-86
2022/09/02 01:33:09;;;;;;;11.73;4.80;;;;;;;27.44;69.35;98625.72;6127201;23;20136;-86
2022/09/02 01:35:36;;;;;;;6.60;3.53;;;;;;;27.50;69.34;98626.78;6126307;23;20151;-86
2022/09/02 01:38:02;;;;;;;6.22;3.30;;;;;;;27.54;68.78;98614.59;6126847;23;20230;-86
2022/09/02 01:40:31;;;;;;;11.88;3.97;;;;;;;27.53;68.83;98629.09;6126478;23;20154;-86
2022/09/02 01:43:06;;;;;;;11.65;3.95;;;;;;;27.52;68.82;98622.03;6126447;23;20576;-86
2022/09/02 01:45:35;;;;;;;10.35;3.75;;;;;;;27.50;68.54;98616.84;6126826;23;20131;-86
2022/09/02 01:48:02;;;;;;;6.40;3.53;;;;;;;27.52;69.00;98613.94;6126789;23;20210;-86
2022/09/02 01:50:30;;;;;;;9.55;3.90;;;;;;;27.50;68.61;98611.47;6126649;23;20270;-86
2022/09/02 01:52:56;;;;;;;8.52;4.00;;;;;;;27.44;69.18;98606.88;6127056;23;20151;-86
2022/09/02 01:55:22;;;;;;;7.80;3.55;;;;;;;27.37;69.43;98608.69;6126317;23;20195;-86
2022/09/02 01:57:48;;;;;;;6.88;3.80;;;;;;;27.44;69.05;98610.41;6100809;23;20621;-86
2022/09/02 02:00:15;;;;;;;8.10;3.10;;;;;;;27.47;68.88;98617.25;6126385;23;20168;-86
2022/09/02 02:02:42;;;;;;;14.40;4.18;;;;;;;27.44;69.06;98613.09;6126354;23;20170;-86
2022/09/02 02:05:09;;;;;;;7.28;4.15;;;;;;;27.39;68.95;98612.88;6126695;23;20187;-86
2022/09/02 02:07:36;;;;;;;9.95;3.97;;;;;;;27.40;68.94;98619.94;6127038;23;20148;-86
2022/09/02 02:10:04;;;;;;;8.10;3.65;;;;;;;27.37;69.33;98614.91;6126175;23;20152;-86
2022/09/02 02:12:31;;;;;;;12.38;4.28;;;;;;;27.47;68.58;98613.72;6126645;23;20161;-86
2022/09/02 02:14:56;;;;;;;10.63;4.85;;;;;;;27.46;68.57;98612.91;6126644;23;20154;-86
2022/09/02 02:17:23;;;;;;;7.13;4.00;;;;;;;27.36;68.72;98617.78;6126619;23;20151;-86
2022/09/02 02:19:49;;;;;;;8.43;3.65;;;;;;;27.31;68.94;98617.56;6126598;23;20155;-86
2022/09/02 02:22:16;;;;;;;6.88;3.67;;;;;;;27.23;69.23;98613.16;6126246;23;20576;-86
2022/09/02 02:24:42;;;;;;;6.53;3.92;;;;;;;27.14;69.65;98614.38;6126921;23;20163;-86
2022/09/02 02:27:07;;;;;;;5.70;3.50;;;;;;;27.17;69.69;98613.16;6126274;23;20235;-86
2022/09/02 02:29:34;;;;;;;6.57;3.63;;;;;;;27.17;69.31;98613.97;6100764;23;20651;-86
2022/09/02 02:32:02;;;;;;;6.40;3.03;;;;;;;27.13;69.39;98607.31;6126446;23;20206;-86
2022/09/02 02:34:29;;;;;;;7.07;3.40;;;;;;;27.13;68.81;98611.88;6126511;23;20148;-86
2022/09/02 02:36:54;;;;;;;7.45;3.92;;;;;;;27.16;68.75;98612.31;6126510;23;20152;-86
2022/09/02 02:39:20;;;;;;;12.35;3.78;;;;;;;27.11;69.27;98609.38;6100637;23;20166;-86
2022/09/02 02:41:46;;;;;;;8.57;3.40;;;;;;;27.00;69.66;98611.78;6126481;23;20144;-86
2022/09/02 02:44:13;;;;;;;9.80;3.25;;;;;;;26.98;69.62;98609.31;6100605;23;20635;-86
2022/09/02 02:46:40;;;;;;;6.40;3.40;;;;;;;26.97;69.64;98623.78;6127230;23;20148;-86
2022/09/02 02:49:07;;;;;;;8.25;3.60;;;;;;;26.94;69.47;98618.78;6128032;23;20176;-86
2022/09/02 02:51:34;;;;;;;6.38;3.42;;;;;;;26.90;69.25;98617.53;6128286;23;20190;-86
2022/09/02 02:54:01;;;;;;;8.18;3.15;;;;;;;26.91;69.41;98613.81;6128356;23;20191;-86
2022/09/02 02:56:29;;;;;;;4.80;2.75;;;;;;;26.95;69.06;98614.25;6128328;23;20215;-86
2022/09/02 02:58:56;;;;;;;9.05;3.42;;;;;;;26.82;69.62;98612.28;6102333;23;20584;-86
2022/09/02 03:01:22;;;;;;;8.63;4.28;;;;;;;26.70;70.22;98613.84;6127911;23;20151;-86
2022/09/02 03:03:50;;;;;;;6.22;3.40;;;;;;;26.57;70.66;98614.53;6127824;23;20152;-86
2022/09/02 03:06:16;;;;;;;10.23;3.73;;;;;;;26.60;71.17;98618.69;6103631;23;20167;-86
2022/09/02 03:08:42;;;;;;;5.88;3.38;;;;;;;26.46;71.02;98625.84;6102361;23;20167;-86
2022/09/02 03:11:09;;;;;;;10.95;4.55;;;;;;;26.46;71.36;98617.78;6127750;23;20211;-86
2022/09/02 03:13:36;;;;;;;6.93;3.40;;;;;;;26.40;71.33;98620.41;6102170;23;20151;-86
2022/09/02 03:16:05;;;;;;;7.20;3.38;;;;;;;26.40;71.06;98620.41;6128106;23;20159;-86
2022/09/02 03:18:33;;;;;;;6.03;3.40;;;;;;;26.42;71.17;98623.72;6127778;23;20148;-86
2022/09/02 03:20:59;;;;;;;8.25;3.33;;;;;;;26.50;70.66;98620.91;6127756;23;20202;-86
2022/09/02 03:23:26;;;;;;;7.37;3.30;;;;;;;26.59;69.85;98619.75;6128023;23;20152;-86
2022/09/02 03:25:53;;;;;;;7.00;3.90;;;;;;;26.65;69.46;98629.72;6102462;23;20152;-86
2022/09/02 03:28:20;;;;;;;9.77;3.83;;;;;;;26.70;69.04;98627.28;6127664;23;20156;-86
2022/09/02 03:30:46;;;;;;;8.60;3.20;;;;;;;26.72;69.03;98619.84;6127861;23;20176;-86
2022/09/02 03:33:11;;;;;;;7.80;3.47;;;;;;;26.75;69.14;98624.84;6128263;23;20158;-86
2022/09/02 03:35:40;;;;;;;8.40;3.73;;;;;;;26.76;69.00;98621.09;6127610;23;20451;-86
2022/09/02 03:38:07;;;;;;;11.27;3.53;;;;;;;26.75;69.17;98617.63;6127901;23;20163;-86
2022/09/02 03:40:33;;;;;;;7.10;3.90;;;;;;;26.77;68.88;98618.28;6101998;23;20154;-86
2022/09/02 03:43:00;;;;;;;8.23;3.80;;;;;;;26.79;68.90;98624.28;6127506;23;20231;-86
2022/09/02 03:45:28;;;;;;;7.93;3.58;;;;;;;26.76;69.13;98623.78;6127570;23;20215;-86
2022/09/02 03:47:54;;;;;;;7.80;3.30;;;;;;;26.78;68.85;98621.81;6127476;23;20152;-86
2022/09/02 03:50:24;;;;;;;7.20;3.33;;;;;;;26.79;69.00;98626.13;6127694;23;20175;-86
2022/09/02 03:52:50;;;;;;;7.35;3.50;;;;;;;26.80;68.94;98625.13;6128189;23;20136;-86
2022/09/02 03:55:17;;;;;;;8.00;3.60;;;;;;;26.75;69.20;98624.84;6127367;23;20266;-86
2022/09/02 03:57:45;;;;;;;7.80;4.25;;;;;;;26.68;69.85;98627.47;6127556;23;20175;-86
2022/09/02 04:00:14;;;;;;;6.45;3.30;;;;;;;26.67;69.95;98628.50;6127384;23;20151;-86
2022/09/02 04:02:40;;;;;;;11.02;4.25;;;;;;;26.60;70.35;98632.16;6127347;23;20155;-86
2022/09/02 04:05:08;;;;;;;9.27;3.80;;;;;;;26.52;71.12;98637.69;6126963;23;20151;-86
2022/09/02 04:07:33;;;;;;;7.80;3.95;;;;;;;26.54;71.01;98643.69;6126749;23;20175;-86
2022/09/02 04:10:00;;;;;;;9.73;3.33;;;;;;;26.54;70.67;98652.59;6126531;23;20580;-86
2022/09/02 04:12:39;;;;;;;8.48;3.65;;;;;;;26.65;70.48;98651.25;6123857;23;20183;-86
2022/09/02 04:15:09;;;;;;;10.43;3.67;;;;;;;26.71;69.95;98639.69;6125493;23;20143;-85
2022/09/02 04:17:38;;;;;;;6.47;2.93;;;;;;;26.71;69.91;98645.06;6126540;23;20144;-86
2022/09/02 04:20:07;;;;;;;7.83;3.43;;;;;;;26.76;69.60;98642.63;6125263;23;20159;-86
2022/09/02 04:22:34;;;;;;;5.45;3.65;;;;;;;26.74;69.76;98647.38;6126907;23;20591;-86
2022/09/02 04:24:59;;;;;;;5.53;3.07;;;;;;;26.74;69.81;98642.00;6127000;23;20156;-86
2022/09/02 04:27:26;;;;;;;10.13;3.78;;;;;;;26.76;70.00;98648.00;6101548;23;20263;-86
2022/09/02 04:29:53;;;;;;;9.23;4.15;;;;;;;26.74;70.09;98650.06;6127105;23;20162;-86
2022/09/02 04:32:20;;;;;;;7.40;3.70;;;;;;;26.72;69.94;98657.50;6125980;23;20186;-86
2022/09/02 04:34:46;;;;;;;8.02;3.88;;;;;;;26.74;70.35;98656.28;6127373;23;20223;-86
2022/09/02 04:37:12;;;;;;;8.35;4.03;;;;;;;26.82;69.90;98655.31;6127344;23;20183;-86
2022/09/02 04:39:39;;;;;;;6.68;3.58;;;;;;;26.75;70.30;98657.94;6127350;23;20209;-86
2022/09/02 04:42:05;;;;;;;9.77;3.97;;;;;;;26.81;70.52;98657.19;6127315;23;20158;-86
2022/09/02 04:44:32;;;;;;;6.20;3.13;;;;;;;26.91;70.18;98656.84;6126981;23;20152;-86
2022/09/02 04:47:00;;;;;;;9.13;4.38;;;;;;;26.98;69.54;98660.41;6126943;23;20162;-86
2022/09/02 04:49:30;;;;;;;9.95;3.50;;;;;;;26.93;70.16;98662.88;6126974;23;20152;-86
2022/09/02 04:51:55;;;;;;;7.32;4.00;;;;;;;26.92;70.23;98669.25;6127211;23;20175;-86
2022/09/02 04:54:21;;;;;;;6.53;3.88;;;;;;;26.92;70.34;98661.19;6127287;23;20163;-86
2022/09/02 04:56:48;;;;;;;9.68;3.92;;;;;;;26.98;69.93;98663.09;6127202;23;20226;-86
2022/09/02 04:59:15;;;;;;;5.78;3.47;;;;;;;27.01;69.63;98667.25;6101125;23;20164;-86
2022/09/02 05:01:42;;;;;;;7.85;3.47;;;;;;;27.06;69.91;98671.03;6126749;23;20143;-86
2022/09/02 05:04:09;;;;;;;7.57;3.40;;;;;;;27.00;69.90;98671.81;6126623;23;20171;-85
2022/09/02 05:06:35;;;;;;;6.35;3.50;;;;;;;27.12;69.38;98677.50;6126700;23;20187;-86
2022/09/02 05:09:02;;;;;;;9.48;4.13;;;;;;;27.14;69.14;98678.13;6100824;23;20164;-86
2022/09/02 05:11:30;;;;;;;6.53;3.70;;;;;;;27.22;68.45;98676.13;6126597;23;20242;-86
2022/09/02 05:13:58;;;;;;;7.32;3.22;;;;;;;27.16;69.03;98679.59;6101141;23;20658;-87
2022/09/02 05:16:28;;;;;;;8.25;3.58;;;;;;;27.17;69.20;98672.34;6126627;23;20151;-86
2022/09/02 05:18:54;;;;;;;5.38;3.00;;;;;;;27.00;70.12;98673.66;6126996;23;20140;-86
2022/09/02 05:21:21;;;;;;;7.85;3.53;;;;;;;27.12;70.10;98672.09;6099856;23;20162;-86
2022/09/02 05:23:47;;;;;;;7.78;3.72;;;;;;;27.05;70.57;98676.59;6124115;23;20148;-86
2022/09/02 05:26:13;;;;;;;7.05;3.17;;;;;;;26.90;70.18;98679.38;6124463;23;20269;-86
2022/09/02 05:28:39;;;;;;;5.68;3.83;;;;;;;26.71;71.30;98680.03;6124124;23;20580;-86
2022/09/02 05:31:09;;;;;;;7.88;3.95;;;;;;;26.72;71.83;98684.38;6124346;23;20175;-86
2022/09/02 05:33:37;;;;;;;7.85;3.17;;;;;;;26.94;71.35;98677.16;6124753;23;20148;-86
2022/09/02 05:36:04;;;;;;;7.65;3.70;;;;;;;27.13;69.97;98684.50;6125065;23;20152;-86
2022/09/02 05:38:31;;;;;;;11.70;3.50;;;;;;;27.09;70.12;98676.03;6126795;23;20151;-86
2022/09/02 05:40:58;;;;;;;5.75;3.45;;;;;;;27.10;70.48;98666.06;6126779;23;20144;-86
2022/09/02 05:43:24;;;;;;;7.93;3.70;;;;;;;27.00;70.01;98671.81;6126411;23;20580;-86
2022/09/02 05:45:49;;;;;;;8.82;3.97;;;;;;;26.91;70.74;98659.53;6126429;23;20148;-86
2022/09/02 05:51:03;;;;;;;13.73;3.75;;;;;;;27.15;71.16;98669.84;6127027;23;20267;-86
2022/09/02 05:53:29;;;;;;;9.25;4.60;;;;;;;27.10;71.09;98669.59;6126680;23;20183;-86
2022/09/02 05:55:56;;;;;;;8.27;4.78;;;;;;;27.40;70.61;98657.63;6126256;23;20159;-87
2022/09/02 05:58:21;;;;;;;12.68;4.88;;;;;;;27.61;68.56;98659.38;6126380;23;20152;-86
2022/09/02 06:00:46;;;;;;;10.85;4.45;;;;;;;27.80;67.95;98652.41;6126284;23;20246;-87
2022/09/02 06:03:12;;;;;;;10.25;4.32;;;;;;;27.84;68.04;98664.44;6126607;23;20148;-87
2022/09/02 06:05:39;;;;;;;9.63;3.22;;;;;;;28.01;67.25;98663.06;6126307;23;20152;-87
2022/09/02 06:08:05;;;;;;;8.30;4.50;;;;;;;28.02;66.72;98657.47;6126293;23;20218;-86
2022/09/02 06:10:32;;;;;;;6.20;3.20;;;;;;;28.10;66.33;98651.06;6126802;23;20175;-87
2022/09/02 06:12:58;;;;;;;9.40;3.60;;;;;;;28.04;66.77;98655.41;6126567;23;20152;-87
2022/09/02 06:15:26;;;;;;;6.55;3.30;;;;;;;28.30;66.27;98654.63;6126241;23;20159;-86
2022/09/02 06:17:51;;;;;;;6.90;3.60;;;;;;;28.31;65.53;98655.47;6126870;23;20152;-87
2022/09/02 06:20:17;;;;;;;8.43;3.70;;;;;;;28.42;66.20;98654.88;6127053;23;20587;-86
2022/09/02 06:22:43;;;;;;;11.07;3.50;;;;;;;28.67;64.38;98661.31;6128601;23;20152;-87
2022/09/02 06:25:08;;;;;;;6.95;3.45;;;;;;;28.66;63.96;98658.84;6128225;23;20231;-87
2022/09/02 06:27:35;;;;;;;8.07;3.65;;;;;;;28.32;64.35;98660.66;6128161;23;20164;-87
2022/09/02 06:30:00;;;;;;;9.70;4.25;;;;;;;27.99;65.58;98662.41;6102613;23;20588;-86
2022/09/02 06:32:26;;;;;;;6.80;3.35;;;;;;;27.92;66.21;98666.94;6128365;23;20182;-87
2022/09/02 06:34:51;;;;;;;8.25;3.55;;;;;;;28.21;65.72;98663.94;6128462;23;20171;-86
2022/09/02 06:37:17;;;;;;;7.68;3.20;;;;;;;28.60;65.01;98664.00;6128062;23;20276;-87
2022/09/02 06:39:43;;;;;;;7.90;3.42;;;;;;;28.67;63.69;98665.91;6102511;23;20152;-87
2022/09/02 06:42:09;;;;;;;6.63;3.70;;;;;;;28.68;62.52;98672.97;6102523;23;20163;-86
2022/09/02 06:44:36;;;;;;;6.60;3.40;;;;;;;28.92;62.84;98670.47;6128026;23;20527;-87
2022/09/02 06:47:02;;;;;;;6.10;3.15;;;;;;;29.31;61.24;98679.59;6128699;23;20220;-87
2022/09/02 06:49:28;;;;;;;9.02;3.80;;;;;;;29.13;59.82;98677.50;6128342;23;20151;-87
2022/09/02 06:51:55;;;;;;;6.40;3.58;;;;;;;29.52;59.33;98682.03;6127871;23;20612;-87
2022/09/02 06:54:22;;;;;;;7.28;3.35;;;;;;;29.51;59.64;98675.78;6102288;23;20498;-87
2022/09/02 06:56:49;;;;;;;10.10;3.17;;;;;;;29.66;59.41;98680.94;6127971;23;20203;-88
2022/09/02 06:59:17;;;;;;;8.93;3.65;;;;;;;29.99;58.29;98683.53;6127881;23;20148;-87
2022/09/02 07:01:43;;;;;;;7.95;3.10;;;;;;;30.21;56.97;98684.88;6128193;23;20147;-87
2022/09/02 07:06:54;;;;;;;7.45;3.22;;;;;;;30.05;55.72;98678.09;6128226;23;20216;-87
2022/09/02 07:09:29;;;;;;;9.55;3.75;;;;;;;29.77;56.86;98686.50;6127805;23;20166;-87
2022/09/02 07:11:56;;;;;;;6.47;3.10;;;;;;;30.12;55.19;98688.88;6128132;23;20210;-87
2022/09/02 07:14:23;;;;;;;8.20;3.40;;;;;;;30.26;55.91;98685.91;6128070;23;20235;-87
2022/09/02 07:16:52;;;;;;;7.63;3.88;;;;;;;30.29;55.50;98690.03;6127740;23;20183;-87
2022/09/02 07:19:19;;;;;;;6.10;3.50;;;;;;;30.45;55.54;98691.44;6128080;23;20155;-88
2022/09/02 07:21:46;;;;;;;6.85;3.45;;;;;;;30.45;55.44;98686.84;6127728;23;20155;-87
2022/09/02 07:24:13;;;;;;;7.80;3.80;;;;;;;30.67;54.58;98688.13;6127714;23;20239;-88
2022/09/02 07:26:39;;;;;;;7.35;3.83;;;;;;;30.68;54.25;98686.28;6127647;23;20180;-88
2022/09/02 07:29:07;;;;;;;5.30;3.15;;;;;;;30.54;54.01;98688.22;6102066;23;20156;-87
2022/09/02 07:31:35;;;;;;;15.10;4.10;;;;;;;30.54;54.97;98693.66;6101872;23;20263;-87
2022/09/02 07:34:00;;;;;;;8.98;3.90;;;;;;;30.45;54.92;98694.97;6128185;23;20170;-87
2022/09/02 07:36:26;;;;;;;7.80;3.03;;;;;;;30.58;54.09;98697.59;6128616;23;20160;-87
2022/09/02 07:38:52;;;;;;;5.93;3.10;;;;;;;30.35;54.64;98699.97;6127575;23;20595;-88
2022/09/02 07:41:19;;;;;;;5.22;2.65;;;;;;;30.51;55.90;98698.66;6127557;23;20179;-87
2022/09/02 07:43:45;;;;;;;5.10;2.85;;;;;;;30.47;55.25;98692.88;6127525;23;20576;-87
2022/09/02 07:46:11;;;;;;;8.20;4.43;;;;;;;30.64;54.57;98691.28;6101959;23;20230;-87
2022/09/02 07:48:37;;;;;;;8.98;3.03;;;;;;;30.69;53.76;98686.03;6127778;23;20190;-87
2022/09/02 07:51:03;;;;;;;10.43;5.28;;;;;;;30.86;53.29;98686.31;6127358;23;20251;-87
2022/09/02 07:53:30;;;;;;;6.85;3.38;;;;;;;30.87;51.75;98688.81;6127762;23;20517;-87
2022/09/02 07:55:56;;;;;;;5.93;3.35;;;;;;;30.81;51.33;98695.13;6127373;23;20171;-87
2022/09/02 07:58:21;;;;;;;12.10;3.53;;;;;;;31.03;51.36;98693.69;6127720;23;20195;-88
2022/09/02 08:00:47;;;;;;;8.02;3.75;;;;;;;31.32;49.17;98686.75;6101680;23;20152;-88
2022/09/02 08:03:14;;;;;;;11.48;2.90;;;;;;;31.42;51.50;98678.13;6127375;23;20573;-86
2022/09/02 08:05:40;;;;;;;14.95;3.22;;;;;;;31.48;50.17;98677.25;6127320;23;20210;-88
2022/09/02 08:08:07;;;;;;;13.32;3.30;;;;;;;31.68;48.89;98682.44;6101666;23;20218;-87
2022/09/02 08:10:33;;;;;;;6.53;2.78;;;;;;;31.90;49.23;98679.03;6101641;23;20171;-88
2022/09/02 08:13:04;;;;;;;4.65;2.80;;;;;;;32.06;48.81;98686.56;6127533;23;20148;-87
2022/09/02 08:15:30;;;;;;;9.05;2.95;;;;;;;32.31;47.67;98696.47;6101631;23;20182;-87
2022/09/02 08:17:56;;;;;;;7.20;2.75;;;;;;;32.38;45.77;98687.19;6127521;23;20148;-87
2022/09/02 08:20:22;;;;;;;7.78;2.95;;;;;;;32.20;46.62;98689.94;6102019;23;20518;-88
2022/09/02 08:22:48;;;;;;;7.32;2.80;;;;;;;32.47;46.32;98685.78;6127138;23;20580;-89
2022/09/02 08:25:15;;;;;;;5.22;2.40;;;;;;;32.80;45.30;98685.31;6127437;23;20161;-88
2022/09/02 08:27:40;;;;;;;6.40;3.08;;;;;;;33.16;45.23;98668.81;6127751;23;20214;-88
2022/09/02 08:30:09;;;;;;;6.20;3.42;;;;;;;33.31;44.88;98682.75;6127084;23;20580;-89
2022/09/02 08:32:35;;;;;;;6.55;3.03;;;;;;;33.37;43.73;98676.38;6127655;23;20182;-90
2022/09/02 08:35:01;;;;;;;8.35;2.95;;;;;;;33.35;42.47;98678.50;6127685;23;20148;-87
2022/09/02 08:37:31;;;;;;;7.22;3.00;;;;;;;33.30;42.00;98670.25;6101383;23;20215;-88
2022/09/02 08:39:57;;;;;;;5.82;3.00;;;;;;;33.31;42.51;98671.88;6128061;23;20144;-89
2022/09/02 08:42:38;;;;;;;7.20;3.30;;;;;;;33.24;42.70;98663.03;6127288;23;20222;-87
2022/09/02 08:45:13;;;;;;;7.28;2.47;;;;;;;33.41;43.56;98666.66;6126755;23;20158;-87
2022/09/02 08:47:44;;;;;;;4.90;2.55;;;;;;;33.81;41.62;98657.75;6127322;23;20140;-88
2022/09/02 08:50:13;;;;;;;9.52;2.67;;;;;;;33.77;41.99;98648.44;6127251;23;20211;-88
2022/09/02 08:52:52;;;;;;;8.02;3.35;;;;;;;33.86;41.69;98649.69;6101181;23;20267;-88
2022/09/02 08:55:24;;;;;;;6.13;3.03;;;;;;;33.94;41.25;98650.13;6101242;23;20167;-87
2022/09/02 08:57:50;;;;;;;6.25;2.67;;;;;;;33.92;40.55;98646.00;6127185;23;20151;-87
2022/09/02 09:00:16;;;;;;;5.30;2.22;;;;;;;34.12;39.88;98646.44;6127409;23;20164;-87
2022/09/02 09:03:07;;;;;;;6.68;2.20;;;;;;;34.48;40.58;98640.59;6126737;23;20147;-88
2022/09/02 09:05:43;;;;;;;5.18;2.65;;;;;;;34.62;39.73;98634.84;6106304;23;20474;-87
2022/09/02 09:08:17;;;;;;;6.18;2.33;;;;;;;34.58;38.94;98629.88;6127437;23;20135;-87
2022/09/02 09:10:59;;;;;;;6.63;2.10;;;;;;;34.40;38.96;98621.94;6126587;23;20170;-88
2022/09/02 09:14:12;;;;;;;4.75;2.65;;;;;;;34.02;38.64;98610.84;6127435;23;20541;-87
2022/09/02 09:16:51;;;;;;;6.90;2.63;;;;;;;34.01;40.05;98612.72;6009756;23;20201;-87
2022/09/02 09:19:32;;;;;;;4.38;2.35;;;;;;;34.49;38.60;98608.72;6098232;23;20572;-87
2022/09/02 09:22:02;;;;;;;5.90;2.35;;;;;;;34.73;38.31;98593.06;6127401;23;20207;-88
2022/09/02 09:24:40;;;;;;;9.07;2.50;;;;;;;35.04;38.39;98581.56;6127286;23;20179;-88
2022/09/02 09:27:16;;;;;;;4.55;2.40;;;;;;;34.87;37.81;98584.31;6126692;23;20151;-88
2022/09/02 09:29:42;;;;;;;7.05;2.20;;;;;;;35.14;38.40;98592.66;6127280;23;20139;-87
2022/09/02 09:32:32;;;;;;;6.97;2.20;;;;;;;34.94;36.12;98584.13;6126436;23;20175;-86
2022/09/02 09:35:10;;;;;;;7.18;1.95;;;;;;;34.86;36.37;98587.28;6101273;23;20482;-89
2022/09/02 09:37:50;;;;;;;6.95;2.60;;;;;;;34.86;36.15;98571.78;6126853;23;20221;-87
2022/09/02 09:40:21;;;;;;;7.38;2.17;;;;;;;34.48;36.26;98575.25;6126494;23;20639;-88
2022/09/02 09:42:50;;;;;;;5.55;2.80;;;;;;;34.51;36.41;98579.38;6126399;23;20478;-87
2022/09/02 09:45:33;;;;;;;4.03;2.22;;;;;;;34.65;36.09;98568.97;6126446;23;20191;-87
2022/09/02 09:48:47;;;;;;;4.65;1.77;;;;;;;34.63;36.48;98571.13;6127156;23;20146;-87
2022/09/02 09:51:14;;;;;;;5.32;2.20;;;;;;;34.61;37.44;98573.28;6009688;23;20725;-86
2022/09/02 09:53:40;;;;;;;8.07;2.80;;;;;;;34.75;36.35;98566.44;5985833;23;20163;-87
2022/09/02 09:56:24;;;;;;;6.03;2.35;;;;;;;34.51;36.66;98563.84;6072885;23;20175;-87
2022/09/02 09:58:50;;;;;;;3.55;2.17;;;;;;;34.47;36.92;98562.69;6126768;23;20143;-87
2022/09/02 10:01:29;;;;;;;7.13;2.70;;;;;;;34.80;36.61;98550.97;6126345;23;20143;-87
2022/09/02 10:04:06;;;;;;;3.67;1.90;;;;;;;35.08;37.08;98547.31;6126332;23;20207;-87
2022/09/02 10:06:32;;;;;;;4.28;2.13;;;;;;;35.22;36.78;98548.63;6126676;23;20148;-87
2022/09/02 10:09:03;;;;;;;10.10;2.85;;;;;;;35.02;36.12;98548.28;6126240;23;20472;-87
2022/09/02 10:11:31;;;;;;;3.42;2.00;;;;;;;35.02;36.51;98556.47;6126560;23;20238;-87
2022/09/02 10:14:08;;;;;;;5.25;2.35;;;;;;;35.25;35.48;98548.09;6126252;23;20231;-88
2022/09/02 10:16:58;;;;;;;3.72;2.05;;;;;;;34.87;35.14;98542.63;6100671;23;20491;-89
2022/09/02 10:19:44;;;;;;;5.72;2.00;;;;;;;34.99;35.61;98544.19;6126607;23;20190;-87
2022/09/02 10:22:28;;;;;;;9.15;2.10;;;;;;;34.34;35.42;98551.31;6126867;23;20578;-87
2022/09/02 10:25:06;;;;;;;10.13;2.60;;;;;;;34.78;35.96;98535.97;6126223;23;20163;-87
2022/09/02 10:28:02;;;;;;;10.95;2.20;;;;;;;34.94;33.41;98535.09;6100715;23;20464;-87
2022/09/02 10:30:31;;;;;;;5.00;2.15;;;;;;;35.22;34.31;98532.25;6126831;23;20132;-88
2022/09/02 10:33:18;;;;;;;4.15;2.17;;;;;;;35.71;33.78;98542.13;6126206;23;20151;-88
2022/09/02 10:35:56;;;;;;;4.63;1.92;;;;;;;36.10;34.01;98536.53;6100640;23;20190;-88
2022/09/02 10:38:37;;;;;;;5.00;2.50;;;;;;;35.75;34.18;98535.06;6126499;23;20143;-87
2022/09/02 10:41:47;;;;;;;3.40;1.95;;;;;;;35.63;33.49;98550.78;6126849;23;20136;-88
2022/09/02 10:44:24;;;;;;;4.15;1.90;;;;;;;35.64;33.45;98546.16;6126531;23;20195;-87
2022/09/02 10:47:28;;;;;;;5.22;2.22;;;;;;;35.11;33.88;98539.47;6126411;23;20607;-87
2022/09/02 10:49:54;;;;;;;3.85;1.90;;;;;;;34.94;35.17;98546.00;6067388;23;20218;-87
2022/09/02 10:52:22;;;;;;;3.15;1.70;;;;;;;34.94;34.04;98541.38;6126004;23;20498;-88
2022/09/02 10:55:12;;;;;;;6.35;2.08;;;;;;;34.88;34.78;98536.13;6125984;23;20168;-87
2022/09/02 10:57:44;;;;;;;4.80;2.05;;;;;;;35.26;33.90;98525.22;6126466;23;20140;-88
2022/09/02 11:00:15;;;;;;;3.63;2.00;;;;;;;35.14;34.19;98519.09;6126802;23;20230;-89
2022/09/02 11:02:49;;;;;;;5.03;2.03;;;;;;;35.44;33.83;98524.06;6126403;23;20521;-87
2022/09/02 11:05:23;;;;;;;6.15;1.80;;;;;;;35.69;33.53;98511.53;6126112;23;20219;-87
2022/09/02 11:08:02;;;;;;;5.13;2.20;;;;;;;35.27;33.55;98507.78;6127290;23;20132;-87
2022/09/02 11:10:34;;;;;;;4.03;1.63;;;;;;;35.37;33.99;98509.81;6128157;23;20135;-87
2022/09/02 11:13:14;;;;;;;5.72;1.70;;;;;;;34.99;33.99;98508.75;6102336;23;20147;-87
2022/09/02 11:15:55;;;;;;;4.82;2.20;;;;;;;35.28;34.14;98503.97;6128555;23;20152;-87
2022/09/02 11:18:43;;;;;;;4.05;2.10;;;;;;;35.74;33.76;98503.44;6128136;23;20147;-87
2022/09/02 11:21:39;;;;;;;4.68;2.08;;;;;;;36.02;33.24;98507.00;6128480;23;20138;-88
2022/09/02 11:24:18;;;;;;;4.88;2.17;;;;;;;36.06;32.74;98505.41;6128099;23;20553;-88
2022/09/02 11:27:07;;;;;;;6.90;2.40;;;;;;;36.06;32.36;98497.22;6128421;23;20593;-88
2022/09/02 11:29:52;;;;;;;4.07;2.08;;;;;;;35.66;32.70;98484.81;6128013;23;20143;-87
2022/09/02 11:32:42;;;;;;;3.95;2.00;;;;;;;34.97;33.08;98483.69;6128326;23;20163;-87
2022/09/02 11:35:26;;;;;;;3.53;1.92;;;;;;;34.45;34.26;98480.47;6127886;23;20148;-87
2022/09/02 11:37:58;;;;;;;6.65;2.03;;;;;;;34.58;34.48;98472.00;6102026;23;20162;-87
2022/09/02 11:40:29;;;;;;;6.45;2.42;;;;;;;35.03;33.26;98479.13;6128245;23;20226;-88
2022/09/02 11:43:13;;;;;;;5.30;2.10;;;;;;;35.32;33.92;98469.69;6102014;23;20148;-88
2022/09/02 11:45:42;;;;;;;4.00;1.70;;;;;;;35.54;32.78;98470.50;6127920;23;20281;-87
2022/09/02 11:48:28;;;;;;;11.00;1.65;;;;;;;35.44;32.74;98464.09;6101850;23;20239;-87
2022/09/02 11:51:22;;;;;;;4.68;2.13;;;;;;;35.84;32.68;98461.78;6127338;23;20171;-88